Time;durP1;ratioP1;P1;durP2;ratioP2;P2;SDS_P1;SDS_P2;PMS_P1;PMS_P2;Temp;Humidity;BMP_temperature;BMP_pressure;BME280_temperature;BME280_humidity;BME280_pressure;Samples;Min_cycle;Max_cycle;Signal;HPM_P1;HPM_P2
2023/08/02 00:00:51;;;;;;;5.97;1.52;;;16.70;99.90;;;;;;5018048;28;20028;-70
2023/08/02 00:03:17;;;;;;;6.22;1.70;;;16.60;99.90;;;;;;5018938;28;20033;-70
2023/08/02 00:05:54;;;;;;;6.25;1.70;;;16.50;99.90;;;;;;5017943;28;20049;-69
2023/08/02 00:08:20;;;;;;;3.80;1.13;;;16.30;99.90;;;;;;5018886;28;20106;-69
2023/08/02 00:10:46;;;;;;;5.65;1.23;;;16.30;99.90;;;;;;5017838;28;20026;-69
2023/08/02 00:13:12;;;;;;;2.50;1.30;;;16.10;99.90;;;;;;5017768;28;20037;-69
2023/08/02 00:15:38;;;;;;;7.65;1.60;;;16.10;99.90;;;;;;5017833;28;20113;-69
2023/08/02 00:18:03;;;;;;;4.55;1.63;;;16.10;99.90;;;;;;5017545;28;20023;-69
2023/08/02 00:20:29;;;;;;;2.60;1.25;;;16.10;99.90;;;;;;5018574;28;20033;-69
2023/08/02 00:22:54;;;;;;;2.15;1.60;;;16.10;99.90;;;;;;5018534;28;20036;-70
2023/08/02 00:25:20;;;;;;;7.40;2.05;;;16.20;99.90;;;;;;5017630;28;20061;-70
2023/08/02 00:27:45;;;;;;;9.38;1.50;;;16.30;99.90;;;;;;5018348;28;20030;-69
2023/08/02 00:30:11;;;;;;;4.82;1.33;;;16.40;99.90;;;;;;5018411;28;20077;-69
2023/08/02 00:32:47;;;;;;;3.22;1.30;;;16.40;99.90;;;;;;5017439;28;20128;-70
2023/08/02 00:35:12;;;;;;;7.72;1.88;;;16.50;99.90;;;;;;5018691;28;20022;-70
2023/08/02 00:37:38;;;;;;;3.78;1.70;;;16.50;99.90;;;;;;5017331;28;20104;-70
2023/08/02 00:40:04;;;;;;;5.32;1.55;;;16.60;99.90;;;;;;5017715;28;20033;-70
2023/08/02 00:42:29;;;;;;;3.20;1.67;;;16.60;99.90;;;;;;5017155;28;20030;-70
2023/08/02 00:44:55;;;;;;;4.70;2.28;;;16.60;99.90;;;;;;5018335;28;20032;-70
2023/08/02 00:47:21;;;;;;;2.97;1.90;;;16.60;99.90;;;;;;5018267;28;20026;-69
2023/08/02 00:49:47;;;;;;;4.13;2.08;;;16.70;99.90;;;;;;5017490;28;20036;-70
2023/08/02 00:52:13;;;;;;;3.10;0.90;;;16.70;99.90;;;;;;5017370;28;20029;-69
2023/08/02 00:54:41;;;;;;;5.32;1.10;;;16.70;99.90;;;;;;5017096;28;20026;-70
2023/08/02 00:57:10;;;;;;;2.58;0.95;;;16.70;99.90;;;;;;5017840;28;20048;-70
2023/08/02 00:59:40;;;;;;;6.80;1.30;;;16.40;99.90;;;;;;5017791;28;20026;-70
2023/08/02 01:02:08;;;;;;;3.58;1.30;;;16.10;99.90;;;;;;5017737;28;20072;-70
2023/08/02 01:04:34;;;;;;;7.15;0.95;;;16.20;99.90;;;;;;5016875;28;20049;-70
2023/08/02 01:07:23;;;;;;;6.18;1.25;;;16.30;99.90;;;;;;5016360;28;20080;-70
2023/08/02 01:10:09;;;;;;;5.45;2.60;;;16.40;99.90;;;;;;5009447;28;20041;-69
2023/08/02 01:12:37;;;;;;;2.67;1.10;;;16.30;99.90;;;;;;5017696;28;20026;-70
2023/08/02 01:15:05;;;;;;;3.13;1.00;;;16.40;99.90;;;;;;5017730;28;20026;-70
2023/08/02 01:17:31;;;;;;;3.63;1.35;;;16.40;99.90;;;;;;5017446;28;20022;-70
2023/08/02 01:20:03;;;;;;;1.80;1.20;;;16.40;99.90;;;;;;5017167;28;20057;-70
2023/08/02 01:22:29;;;;;;;4.53;1.50;;;16.40;99.90;;;;;;5016873;28;20085;-70
2023/08/02 01:24:56;;;;;;;1.83;0.90;;;16.40;99.90;;;;;;5018005;28;20064;-70
2023/08/02 01:27:25;;;;;;;3.65;1.50;;;16.50;99.90;;;;;;5017332;28;20064;-69
2023/08/02 01:29:52;;;;;;;3.42;1.10;;;16.50;99.90;;;;;;5016499;28;20033;-70
2023/08/02 01:32:21;;;;;;;4.05;1.10;;;16.40;99.90;;;;;;5017828;28;20026;-70
2023/08/02 01:34:48;;;;;;;2.03;1.02;;;16.30;99.90;;;;;;5016968;28;20026;-70
2023/08/02 01:37:14;;;;;;;3.40;1.15;;;16.20;99.90;;;;;;5016317;28;20032;-70
2023/08/02 01:39:39;;;;;;;3.72;1.27;;;16.10;99.90;;;;;;5017179;28;20049;-70
2023/08/02 01:42:05;;;;;;;1.77;1.20;;;16.10;99.90;;;;;;5016426;28;20061;-70
2023/08/02 01:44:31;;;;;;;4.38;1.45;;;16.10;99.90;;;;;;5016287;28;20032;-70
2023/08/02 01:46:56;;;;;;;5.35;1.98;;;16.00;99.90;;;;;;5016364;28;20041;-70
2023/08/02 01:49:22;;;;;;;7.05;1.75;;;16.00;99.90;;;;;;5016379;28;20030;-70
2023/08/02 01:51:47;;;;;;;1.80;1.20;;;16.10;99.90;;;;;;5016996;28;20034;-70
2023/08/02 01:54:13;;;;;;;4.47;1.42;;;16.20;99.90;;;;;;5017160;28;20030;-70
2023/08/02 01:56:39;;;;;;;4.80;2.00;;;16.20;99.90;;;;;;5016273;28;20022;-69
2023/08/02 01:59:04;;;;;;;4.13;1.83;;;16.10;99.90;;;;;;5016989;28;20029;-69
2023/08/02 02:01:30;;;;;;;6.18;1.52;;;16.20;99.90;;;;;;5016224;28;20029;-70
2023/08/02 02:03:55;;;;;;;4.80;1.85;;;16.10;99.90;;;;;;5016688;28;20024;-70
2023/08/02 02:06:21;;;;;;;10.52;1.63;;;16.20;99.90;;;;;;5016112;28;20104;-70
2023/08/02 02:08:47;;;;;;;6.75;2.40;;;16.30;99.90;;;;;;5017064;28;20107;-70
2023/08/02 02:11:12;;;;;;;7.13;1.65;;;16.20;99.90;;;;;;5015980;28;20022;-70
2023/08/02 02:13:38;;;;;;;4.10;1.70;;;16.20;99.90;;;;;;5017288;28;20025;-70
2023/08/02 02:16:03;;;;;;;4.15;1.73;;;16.20;99.90;;;;;;5016423;28;20096;-70
2023/08/02 02:18:29;;;;;;;3.33;1.60;;;16.10;99.90;;;;;;5016324;28;20084;-69
2023/08/02 02:20:54;;;;;;;3.97;1.67;;;16.10;99.90;;;;;;5019989;28;20033;-69
2023/08/02 02:23:20;;;;;;;2.50;1.67;;;16.10;99.90;;;;;;5020032;28;20049;-69
2023/08/02 02:25:45;;;;;;;4.88;1.80;;;16.10;99.90;;;;;;5020888;28;20026;-70
2023/08/02 02:28:11;;;;;;;5.40;2.45;;;16.10;99.90;;;;;;5019757;28;20076;-70
2023/08/02 02:30:37;;;;;;;5.50;2.17;;;16.10;99.90;;;;;;5019717;28;20034;-70
2023/08/02 02:33:04;;;;;;;9.98;2.13;;;16.10;99.90;;;;;;5019659;28;20071;-70
2023/08/02 02:35:30;;;;;;;3.30;1.83;;;16.00;99.90;;;;;;5020596;28;20149;-70
2023/08/02 02:37:55;;;;;;;6.60;2.00;;;16.00;99.90;;;;;;5020827;28;20053;-70
2023/08/02 02:40:21;;;;;;;7.03;2.22;;;16.10;99.90;;;;;;5019549;28;20030;-70
2023/08/02 02:42:46;;;;;;;9.60;2.42;;;16.20;99.90;;;;;;5019565;28;20214;-70
2023/08/02 02:45:13;;;;;;;5.93;2.10;;;16.30;99.90;;;;;;5020487;28;20029;-70
2023/08/02 02:47:39;;;;;;;6.30;1.90;;;16.30;99.90;;;;;;5019402;28;20049;-70
2023/08/02 02:50:05;;;;;;;4.93;2.20;;;16.30;99.90;;;;;;5020265;28;20026;-70
2023/08/02 02:52:32;;;;;;;4.32;2.10;;;16.30;99.90;;;;;;5020131;28;20053;-70
2023/08/02 02:54:57;;;;;;;3.17;1.70;;;16.30;99.90;;;;;;5020474;28;20026;-70
2023/08/02 02:57:23;;;;;;;7.13;2.35;;;16.30;99.90;;;;;;5019674;28;20032;-70
2023/08/02 02:59:48;;;;;;;6.38;1.65;;;16.40;99.90;;;;;;5019246;28;20072;-70
2023/08/02 03:02:14;;;;;;;4.75;1.95;;;16.40;99.90;;;;;;5019238;28;20022;-70
2023/08/02 03:04:39;;;;;;;8.95;2.33;;;16.40;99.90;;;;;;5019172;28;20025;-70
2023/08/02 03:07:05;;;;;;;6.38;1.92;;;16.40;99.90;;;;;;5019820;28;20026;-70
2023/08/02 03:09:30;;;;;;;4.55;2.17;;;16.30;99.90;;;;;;5019397;28;20026;-70
2023/08/02 03:11:56;;;;;;;9.63;2.83;;;16.50;99.90;;;;;;5019309;28;20022;-70
2023/08/02 03:14:22;;;;;;;2.42;1.60;;;16.60;99.90;;;;;;5019325;28;20079;-70
2023/08/02 03:16:47;;;;;;;6.63;2.20;;;16.70;99.90;;;;;;5020054;28;20036;-70
2023/08/02 03:19:13;;;;;;;5.13;2.05;;;16.70;99.90;;;;;;5019639;28;20109;-70
2023/08/02 03:21:39;;;;;;;9.10;2.20;;;16.80;99.90;;;;;;5020030;28;20032;-70
2023/08/02 03:24:05;;;;;;;6.03;2.08;;;16.80;99.90;;;;;;5019100;28;20033;-70
2023/08/02 03:26:31;;;;;;;6.22;2.63;;;16.70;99.90;;;;;;5018822;28;20029;-70
2023/08/02 03:28:57;;;;;;;11.38;2.63;;;16.60;99.90;;;;;;5018347;28;20036;-70
2023/08/02 03:31:23;;;;;;;5.60;2.25;;;16.70;99.90;;;;;;5018160;28;20121;-70
2023/08/02 03:33:48;;;;;;;6.72;2.38;;;16.70;99.90;;;;;;5018845;28;20022;-69
2023/08/02 03:36:15;;;;;;;4.40;2.42;;;16.80;99.90;;;;;;5018493;28;20018;-70
2023/08/02 03:38:41;;;;;;;6.10;2.38;;;16.80;99.90;;;;;;5018518;28;20032;-69
2023/08/02 03:41:07;;;;;;;8.05;2.10;;;16.70;99.90;;;;;;5018667;28;20026;-69
2023/08/02 03:43:32;;;;;;;8.20;2.20;;;16.50;99.90;;;;;;5018673;28;20030;-70
2023/08/02 03:45:58;;;;;;;3.28;1.85;;;16.50;99.90;;;;;;5018374;28;20025;-70
2023/08/02 03:48:25;;;;;;;9.88;2.25;;;16.40;99.90;;;;;;5018343;28;20041;-70
2023/08/02 03:50:50;;;;;;;7.65;2.72;;;16.40;99.90;;;;;;5018406;28;20029;-70
2023/08/02 03:53:16;;;;;;;5.13;2.33;;;16.30;99.90;;;;;;5018247;28;20026;-69
2023/08/02 03:55:41;;;;;;;8.65;2.97;;;16.20;99.90;;;;;;5019162;28;20077;-70
2023/08/02 03:58:07;;;;;;;6.07;2.17;;;16.20;99.90;;;;;;5018245;28;20045;-70
2023/08/02 04:00:32;;;;;;;3.63;2.35;;;16.20;99.90;;;;;;5018703;28;20041;-70
2023/08/02 04:02:59;;;;;;;17.65;2.58;;;16.20;99.90;;;;;;5018343;28;20032;-70
2023/08/02 04:05:24;;;;;;;15.23;3.28;;;16.30;99.90;;;;;;5019237;28;20040;-70
2023/08/02 04:07:50;;;;;;;4.78;2.30;;;16.30;99.90;;;;;;5018123;28;20030;-70
2023/08/02 04:10:15;;;;;;;4.43;2.13;;;16.20;99.90;;;;;;5018762;28;20018;-70
2023/08/02 04:12:41;;;;;;;3.95;2.10;;;16.20;99.90;;;;;;5018112;28;20072;-70
2023/08/02 04:15:07;;;;;;;6.03;2.38;;;16.20;99.90;;;;;;5017976;28;20109;-70
2023/08/02 04:17:33;;;;;;;6.10;2.35;;;16.20;99.90;;;;;;5018013;28;20030;-69
2023/08/02 04:20:00;;;;;;;7.20;2.28;;;16.30;99.90;;;;;;5018674;28;20079;-70
2023/08/02 04:22:25;;;;;;;6.63;2.30;;;16.30;99.90;;;;;;5018727;28;20033;-70
2023/08/02 04:24:51;;;;;;;8.70;2.40;;;16.30;99.90;;;;;;5017559;28;20026;-70
2023/08/02 04:27:16;;;;;;;6.25;2.03;;;16.50;99.90;;;;;;5018114;28;20171;-70
2023/08/02 04:29:42;;;;;;;6.72;2.80;;;16.50;99.90;;;;;;5018484;28;20022;-70
2023/08/02 04:32:07;;;;;;;7.85;2.40;;;16.40;99.90;;;;;;5018645;28;20058;-70
2023/08/02 04:34:33;;;;;;;6.57;2.15;;;16.40;99.90;;;;;;5017468;28;20029;-70
2023/08/02 04:36:58;;;;;;;4.50;2.08;;;16.30;99.90;;;;;;5017481;28;20037;-70
2023/08/02 04:39:24;;;;;;;6.35;2.70;;;16.20;99.90;;;;;;5017698;28;20026;-70
2023/08/02 04:41:57;;;;;;;10.45;2.88;;;16.20;99.90;;;;;;5016321;28;20025;-69
2023/08/02 04:44:23;;;;;;;9.52;3.10;;;16.00;99.90;;;;;;5017298;28;20042;-70
2023/08/02 04:46:48;;;;;;;5.75;2.70;;;16.00;99.90;;;;;;5017373;28;20140;-70
2023/08/02 04:49:14;;;;;;;5.38;2.35;;;16.00;99.90;;;;;;5018351;28;20083;-69
2023/08/02 04:51:39;;;;;;;6.28;2.65;;;16.10;99.90;;;;;;5017345;28;20029;-70
2023/08/02 04:54:05;;;;;;;6.75;3.10;;;16.10;99.90;;;;;;5017896;28;20018;-69
2023/08/02 04:56:31;;;;;;;6.80;2.80;;;16.10;99.90;;;;;;5018270;28;20018;-70
2023/08/02 04:58:56;;;;;;;4.53;2.20;;;16.30;99.90;;;;;;5017091;28;20022;-70
2023/08/02 05:01:22;;;;;;;5.88;2.63;;;16.30;99.90;;;;;;5017727;28;20026;-70
2023/08/02 05:03:47;;;;;;;5.63;2.92;;;16.40;99.90;;;;;;5017329;28;20101;-70
2023/08/02 05:06:13;;;;;;;7.18;2.05;;;16.50;99.90;;;;;;5018253;28;20026;-70
2023/08/02 05:08:39;;;;;;;4.72;2.20;;;16.50;99.90;;;;;;5016912;28;20028;-69
2023/08/02 05:11:06;;;;;;;5.45;2.60;;;16.50;99.90;;;;;;5016876;28;20022;-70
2023/08/02 05:13:32;;;;;;;7.47;2.42;;;16.50;99.90;;;;;;5017823;28;20030;-70
2023/08/02 05:15:58;;;;;;;6.72;3.33;;;16.60;99.90;;;;;;5017171;28;20029;-70
2023/08/02 05:18:23;;;;;;;10.55;2.35;;;16.60;99.90;;;;;;5018365;28;20006;-70
2023/08/02 05:20:49;;;;;;;5.72;2.13;;;16.60;99.90;;;;;;5016873;28;20038;-70
2023/08/02 05:23:15;;;;;;;7.70;2.53;;;16.70;99.90;;;;;;5017560;28;20060;-70
2023/08/02 05:25:41;;;;;;;5.03;1.70;;;16.70;99.90;;;;;;5016660;28;20032;-70
2023/08/02 05:28:07;;;;;;;9.32;2.25;;;16.90;99.90;;;;;;5017006;28;20062;-70
2023/08/02 05:30:34;;;;;;;12.70;2.60;;;16.90;99.90;;;;;;5017334;28;20065;-70
2023/08/02 05:33:00;;;;;;;7.32;2.38;;;16.80;99.90;;;;;;5016859;28;20022;-70
2023/08/02 05:35:25;;;;;;;5.70;2.40;;;16.80;99.90;;;;;;5016362;28;20030;-70
2023/08/02 05:37:54;;;;;;;5.40;2.45;;;16.90;99.90;;;;;;5017344;28;20026;-70
2023/08/02 05:40:20;;;;;;;7.00;2.47;;;17.00;99.90;;;;;;5016756;28;20026;-70
2023/08/02 05:42:45;;;;;;;9.32;3.05;;;16.90;99.90;;;;;;5017459;28;20022;-70
2023/08/02 05:45:11;;;;;;;7.15;2.08;;;17.00;99.90;;;;;;5016389;28;20025;-70
2023/08/02 05:47:37;;;;;;;7.38;2.30;;;16.90;99.90;;;;;;5017141;28;20061;-70
2023/08/02 05:50:03;;;;;;;4.85;2.28;;;16.80;99.90;;;;;;5016717;28;20030;-70
2023/08/02 05:52:29;;;;;;;4.32;2.25;;;16.60;99.90;;;;;;5016362;28;20026;-70
2023/08/02 05:54:55;;;;;;;6.90;2.70;;;16.60;99.90;;;;;;5017202;28;20025;-70
2023/08/02 05:57:20;;;;;;;7.93;2.72;;;16.50;99.90;;;;;;5016170;28;20033;-70
2023/08/02 05:59:48;;;;;;;6.72;2.50;;;16.50;99.90;;;;;;5016181;28;20022;-70
2023/08/02 06:02:14;;;;;;;5.78;2.55;;;16.50;99.90;;;;;;5017307;28;20029;-70
2023/08/02 06:04:43;;;;;;;5.43;2.60;;;16.60;99.90;;;;;;5016511;28;20164;-70
2023/08/02 06:07:09;;;;;;;9.95;2.50;;;16.60;99.90;;;;;;5016064;28;20069;-70
2023/08/02 06:09:38;;;;;;;4.78;2.40;;;16.40;99.90;;;;;;5016187;28;20060;-70
2023/08/02 06:12:03;;;;;;;8.90;2.33;;;16.40;99.90;;;;;;5016377;28;20053;-70
2023/08/02 06:14:29;;;;;;;9.50;2.42;;;16.30;99.90;;;;;;5016985;28;20022;-70
2023/08/02 06:16:55;;;;;;;5.25;2.35;;;16.30;99.90;;;;;;5016580;28;20114;-70
2023/08/02 06:19:20;;;;;;;7.03;2.13;;;16.40;99.90;;;;;;5016989;28;20041;-70
2023/08/02 06:21:46;;;;;;;4.05;2.42;;;16.30;99.90;;;;;;5016973;28;20032;-70
2023/08/02 06:24:11;;;;;;;6.65;2.30;;;16.30;99.90;;;;;;5016224;28;20029;-70
2023/08/02 06:26:37;;;;;;;7.78;2.40;;;16.50;99.90;;;;;;5017148;28;20036;-70
2023/08/02 06:29:03;;;;;;;9.23;2.60;;;16.50;99.90;;;;;;5016883;28;20026;-70
2023/08/02 06:31:28;;;;;;;3.47;1.98;;;16.50;99.90;;;;;;5016760;28;20022;-70
2023/08/02 06:33:54;;;;;;;7.10;2.28;;;16.60;99.90;;;;;;5017044;28;20029;-70
2023/08/02 06:36:19;;;;;;;5.30;2.22;;;16.50;99.90;;;;;;5016548;28;20071;-70
2023/08/02 06:38:46;;;;;;;8.27;2.15;;;16.60;99.90;;;;;;5016850;28;20034;-70
2023/08/02 06:41:12;;;;;;;6.80;2.40;;;16.60;99.90;;;;;;5016676;28;20025;-70
2023/08/02 06:43:37;;;;;;;5.85;2.15;;;16.50;99.90;;;;;;5016700;28;20022;-70
2023/08/02 06:46:04;;;;;;;5.55;2.05;;;16.60;99.90;;;;;;5015769;28;20037;-70
2023/08/02 06:48:29;;;;;;;9.32;2.30;;;16.60;99.90;;;;;;5015727;28;20026;-70
2023/08/02 06:50:55;;;;;;;4.07;2.03;;;16.50;99.90;;;;;;5016961;28;20026;-70
2023/08/02 06:53:20;;;;;;;4.15;2.38;;;16.60;99.90;;;;;;5016388;28;20030;-70
2023/08/02 06:55:46;;;;;;;5.40;2.45;;;16.70;99.90;;;;;;5015596;28;20072;-70
2023/08/02 06:58:48;;;;;;;5.80;2.90;;;16.70;99.90;;;;;;5015570;28;20071;-70
2023/08/02 07:01:18;;;;;;;5.82;2.38;;;16.60;99.90;;;;;;5017057;28;20022;-70
2023/08/02 07:03:45;;;;;;;6.75;2.33;;;16.70;99.90;;;;;;5017085;28;20034;-70
2023/08/02 07:06:12;;;;;;;5.78;2.80;;;16.70;99.90;;;;;;5018801;28;20025;-70
2023/08/02 07:08:38;;;;;;;9.10;2.22;;;16.60;99.90;;;;;;5019933;28;20033;-70
2023/08/02 07:11:04;;;;;;;10.95;3.15;;;16.70;99.90;;;;;;5019738;28;20030;-70
2023/08/02 07:13:33;;;;;;;5.40;2.55;;;16.70;99.90;;;;;;5019276;28;20076;-70
2023/08/02 07:16:00;;;;;;;6.88;2.50;;;16.90;99.90;;;;;;5019803;28;20025;-70
2023/08/02 07:18:25;;;;;;;7.07;2.20;;;16.90;99.90;;;;;;5018749;28;20028;-70
2023/08/02 07:20:51;;;;;;;4.35;2.78;;;16.90;99.90;;;;;;5018856;28;20118;-70
2023/08/02 07:23:17;;;;;;;5.10;2.75;;;16.90;99.90;;;;;;5019355;28;20053;-70
2023/08/02 07:25:42;;;;;;;6.53;2.75;;;16.90;99.90;;;;;;5019664;28;20061;-70
2023/08/02 07:28:08;;;;;;;7.82;3.50;;;16.70;99.90;;;;;;5018825;28;20030;-70
2023/08/02 07:30:33;;;;;;;5.40;2.47;;;16.70;99.90;;;;;;5019862;28;20033;-70
2023/08/02 07:32:59;;;;;;;3.80;2.40;;;16.80;99.90;;;;;;5018589;28;20034;-70
2023/08/02 07:35:24;;;;;;;7.10;2.45;;;16.60;99.90;;;;;;5019706;28;20037;-70
2023/08/02 07:37:50;;;;;;;9.18;3.53;;;16.60;99.90;;;;;;5018876;28;20120;-71
2023/08/02 07:40:15;;;;;;;18.60;2.80;;;16.50;99.90;;;;;;5018880;28;20022;-70
2023/08/02 07:42:41;;;;;;;7.63;2.83;;;16.50;99.90;;;;;;5019398;28;20029;-69
2023/08/02 07:45:09;;;;;;;7.50;2.78;;;16.50;99.90;;;;;;5018455;28;20022;-71
2023/08/02 07:47:35;;;;;;;4.85;2.40;;;16.40;99.90;;;;;;5018734;28;20033;-70
2023/08/02 07:50:01;;;;;;;8.15;3.08;;;16.40;99.90;;;;;;5019451;28;20084;-70
2023/08/02 07:52:27;;;;;;;5.82;3.30;;;16.40;99.90;;;;;;5019105;28;20026;-70
2023/08/02 07:54:53;;;;;;;4.93;2.42;;;16.30;99.90;;;;;;5018505;28;20083;-70
2023/08/02 07:57:20;;;;;;;6.43;2.47;;;16.50;99.90;;;;;;5018224;28;20029;-70
2023/08/02 07:59:46;;;;;;;4.75;2.97;;;16.50;99.90;;;;;;5018111;28;20076;-70
2023/08/02 08:02:12;;;;;;;8.02;3.10;;;16.40;99.90;;;;;;5018312;28;20048;-70
2023/08/02 08:04:38;;;;;;;7.85;3.30;;;16.50;99.90;;;;;;5018158;28;20038;-70
2023/08/02 08:07:04;;;;;;;8.70;3.00;;;16.50;99.90;;;;;;5018636;28;20072;-71
2023/08/02 08:09:29;;;;;;;5.28;3.22;;;16.50;99.90;;;;;;5017903;28;20037;-70
2023/08/02 08:11:55;;;;;;;5.32;2.88;;;16.30;99.90;;;;;;5018658;28;20030;-69
2023/08/02 08:14:20;;;;;;;6.13;3.08;;;16.30;99.90;;;;;;5018827;28;20030;-70
2023/08/02 08:16:46;;;;;;;8.65;3.10;;;16.40;99.90;;;;;;5018875;28;20025;-69
2023/08/02 08:19:11;;;;;;;5.78;2.58;;;16.30;99.90;;;;;;5017734;28;20042;-69
2023/08/02 08:21:37;;;;;;;5.07;2.95;;;16.30;99.90;;;;;;5017764;28;20026;-69
2023/08/02 08:24:02;;;;;;;4.63;2.40;;;16.30;99.90;;;;;;5017677;28;20032;-69
2023/08/02 08:26:28;;;;;;;4.07;2.15;;;16.50;99.90;;;;;;5018512;28;20022;-69
2023/08/02 08:28:53;;;;;;;5.60;2.90;;;16.50;99.90;;;;;;5017485;28;20022;-69
2023/08/02 08:31:19;;;;;;;4.78;2.47;;;16.50;99.90;;;;;;5017596;28;20025;-69
2023/08/02 08:33:44;;;;;;;5.82;2.70;;;16.60;99.90;;;;;;5017435;28;20026;-69
2023/08/02 08:36:14;;;;;;;6.40;2.30;;;16.70;99.90;;;;;;5017685;28;20066;-69
2023/08/02 08:38:39;;;;;;;5.80;2.50;;;16.80;99.90;;;;;;5017902;28;20083;-69
2023/08/02 08:41:06;;;;;;;5.18;2.15;;;16.70;99.90;;;;;;5017716;28;20112;-68
2023/08/02 08:43:33;;;;;;;3.60;2.00;;;16.80;99.90;;;;;;5018024;28;20029;-69
2023/08/02 08:45:59;;;;;;;3.45;1.85;;;16.70;99.90;;;;;;5018302;28;20022;-70
2023/08/02 08:48:26;;;;;;;4.03;1.83;;;16.80;99.90;;;;;;5017493;28;20096;-70
2023/08/02 08:50:54;;;;;;;2.25;1.40;;;16.80;99.90;;;;;;5018210;28;20053;-70
2023/08/02 08:53:31;;;;;;;4.57;1.92;;;17.00;99.90;;;;;;5017239;28;20109;-70
2023/08/02 08:55:58;;;;;;;2.42;1.85;;;17.10;99.90;;;;;;5018114;28;20014;-70
2023/08/02 08:58:24;;;;;;;4.25;1.55;;;17.10;99.90;;;;;;5017119;28;20048;-69
2023/08/02 09:00:50;;;;;;;3.75;1.50;;;17.00;99.90;;;;;;5017057;28;20053;-70
2023/08/02 09:03:16;;;;;;;3.40;1.42;;;17.10;99.90;;;;;;5018506;28;20041;-71
2023/08/02 09:05:42;;;;;;;3.65;1.30;;;17.10;99.90;;;;;;5016949;28;20053;-70
2023/08/02 09:08:08;;;;;;;2.65;1.52;;;17.10;99.90;;;;;;5017917;28;20097;-70
2023/08/02 09:10:34;;;;;;;2.80;1.60;;;17.10;99.90;;;;;;5016887;28;20026;-70
2023/08/02 09:12:59;;;;;;;4.03;1.55;;;17.20;99.90;;;;;;5017026;28;20026;-70
2023/08/02 09:15:25;;;;;;;2.30;1.33;;;17.10;99.90;;;;;;5017194;28;20119;-70
2023/08/02 09:17:52;;;;;;;1.25;1.15;;;17.30;99.90;;;;;;5017085;28;20026;-70
2023/08/02 09:20:20;;;;;;;1.98;1.60;;;17.30;99.90;;;;;;5018222;28;20199;-70
2023/08/02 09:22:46;;;;;;;2.45;1.50;;;17.30;99.90;;;;;;5017255;28;20168;-70
2023/08/02 09:25:23;;;;;;;2.35;1.48;;;17.10;99.90;;;;;;5016634;28;20092;-70
2023/08/02 09:27:49;;;;;;;4.07;1.73;;;17.00;99.90;;;;;;5016132;28;20141;-69
2023/08/02 09:30:24;;;;;;;2.53;1.55;;;16.80;99.90;;;;;;5016823;28;20113;-70
2023/08/02 09:33:07;;;;;;;2.13;1.58;;;16.80;99.90;;;;;;5018300;28;20033;-70
2023/08/02 09:35:52;;;;;;;2.70;1.25;;;17.00;99.90;;;;;;5016603;28;20170;-69
2023/08/02 09:38:18;;;;;;;2.20;1.25;;;16.90;99.90;;;;;;5016181;28;20076;-69
2023/08/02 09:40:47;;;;;;;1.70;1.20;;;17.00;99.90;;;;;;5017434;28;20018;-70
2023/08/02 09:43:14;;;;;;;1.83;1.40;;;16.90;99.90;;;;;;5017562;28;20113;-70
2023/08/02 09:45:40;;;;;;;1.23;1.10;;;17.00;99.90;;;;;;5016295;28;20113;-70
2023/08/02 09:48:06;;;;;;;2.05;1.10;;;17.10;99.90;;;;;;5016809;28;20111;-70
2023/08/02 09:50:32;;;;;;;2.00;1.40;;;17.10;99.90;;;;;;5017101;28;20112;-70
2023/08/02 09:53:14;;;;;;;3.22;1.20;;;17.20;99.90;;;;;;5017566;28;20033;-70
2023/08/02 09:55:42;;;;;;;1.08;0.80;;;17.30;99.90;;;;;;5017690;28;20040;-70
2023/08/02 09:58:08;;;;;;;4.15;0.95;;;17.30;99.90;;;;;;5017014;28;20026;-70
2023/08/02 10:00:33;;;;;;;1.90;1.00;;;17.30;99.90;;;;;;5016214;28;20022;-70
2023/08/02 10:02:59;;;;;;;1.50;0.90;;;17.20;99.90;;;;;;5016169;28;20033;-70
2023/08/02 10:05:25;;;;;;;0.73;0.73;;;17.40;99.90;;;;;;5016499;28;20026;-70
2023/08/02 10:07:53;;;;;;;1.50;0.90;;;17.50;99.90;;;;;;5017004;28;20029;-70
2023/08/02 10:10:23;;;;;;;0.93;0.82;;;17.50;99.90;;;;;;5017338;28;20087;-71
2023/08/02 10:12:55;;;;;;;1.95;1.00;;;17.60;99.90;;;;;;5015887;28;20029;-71
2023/08/02 10:15:21;;;;;;;1.75;0.82;;;17.60;99.90;;;;;;5016133;28;20022;-70
2023/08/02 10:17:47;;;;;;;2.80;1.50;;;17.70;99.90;;;;;;5016020;28;20164;-71
2023/08/02 10:20:14;;;;;;;0.68;0.60;;;17.70;99.90;;;;;;5016862;28;20068;-71
2023/08/02 10:22:41;;;;;;;1.33;0.70;;;17.60;99.90;;;;;;5017451;28;20026;-71
2023/08/02 10:25:07;;;;;;;2.00;0.70;;;17.50;99.90;;;;;;5016389;28;20025;-71
2023/08/02 10:27:35;;;;;;;1.38;0.90;;;17.70;99.90;;;;;;5016006;28;20034;-71
2023/08/02 10:30:04;;;;;;;1.30;1.00;;;17.60;99.90;;;;;;5016202;28;20117;-71
2023/08/02 10:32:29;;;;;;;1.10;0.82;;;17.60;99.90;;;;;;5016660;28;20026;-71
2023/08/02 10:34:56;;;;;;;0.50;0.50;;;17.60;99.90;;;;;;5016772;28;20092;-71
2023/08/02 10:37:22;;;;;;;0.77;0.70;;;17.60;99.90;;;;;;5016090;28;20072;-71
2023/08/02 10:39:48;;;;;;;0.77;0.75;;;17.70;99.90;;;;;;5016905;28;20085;-71
2023/08/02 10:42:16;;;;;;;1.20;1.00;;;17.70;99.90;;;;;;5020567;28;20061;-71
2023/08/02 10:44:56;;;;;;;1.00;0.90;;;17.60;99.90;;;;;;5019487;28;20053;-71
2023/08/02 10:47:26;;;;;;;1.58;0.73;;;17.70;99.90;;;;;;5020636;28;20026;-71
2023/08/02 10:49:52;;;;;;;1.23;0.90;;;17.70;99.90;;;;;;5020335;28;20026;-71
2023/08/02 10:52:22;;;;;;;0.85;0.82;;;17.60;99.90;;;;;;5019768;28;20036;-71
2023/08/02 10:55:09;;;;;;;1.73;1.25;;;17.60;99.90;;;;;;5019385;28;20089;-71
2023/08/02 10:57:36;;;;;;;1.45;1.00;;;17.70;99.90;;;;;;5020309;28;20026;-71
2023/08/02 11:00:14;;;;;;;1.73;1.40;;;17.60;99.90;;;;;;5019598;28;20022;-71
2023/08/02 11:02:45;;;;;;;2.33;1.00;;;17.50;99.90;;;;;;5019236;28;20025;-72
2023/08/02 11:05:10;;;;;;;2.15;0.98;;;17.50;99.90;;;;;;5020361;28;20075;-72
2023/08/02 11:07:36;;;;;;;2.63;1.17;;;17.60;99.90;;;;;;5019501;28;20030;-72
2023/08/02 11:10:04;;;;;;;2.53;1.08;;;17.50;99.90;;;;;;5019195;28;20076;-72
2023/08/02 11:12:32;;;;;;;1.95;1.20;;;17.50;99.90;;;;;;5018979;28;20057;-73
2023/08/02 11:14:57;;;;;;;1.35;1.10;;;17.50;99.90;;;;;;5020221;28;20014;-73
2023/08/02 11:17:23;;;;;;;1.10;1.00;;;17.70;99.90;;;;;;5019486;28;20029;-73
2023/08/02 11:19:51;;;;;;;1.30;1.00;;;17.60;99.90;;;;;;5030727;22;20057;-74
2023/08/02 11:22:17;;;;;;;2.78;1.05;;;17.70;99.90;;;;;;5016467;28;20058;-75
2023/08/02 11:24:50;;;;;;;1.85;1.05;;;17.70;99.90;;;;;;4999470;28;20026;-74
2023/08/02 11:27:21;;;;;;;0.80;0.80;;;17.80;99.90;;;;;;5000230;28;20026;-74
2023/08/02 11:29:57;;;;;;;1.10;1.00;;;17.80;99.90;;;;;;5015884;28;20022;-74
2023/08/02 11:32:23;;;;;;;4.05;1.20;;;17.70;99.90;;;;;;4999939;28;20022;-74
2023/08/02 11:34:48;;;;;;;1.83;1.17;;;17.80;99.90;;;;;;5015297;28;20033;-74
2023/08/02 11:37:15;;;;;;;3.72;1.13;;;17.70;99.90;;;;;;5015560;28;20061;-74
2023/08/02 11:39:53;;;;;;;1.83;0.90;;;17.60;99.90;;;;;;5015172;28;20045;-74
2023/08/02 11:42:19;;;;;;;1.52;1.00;;;17.60;99.90;;;;;;5000107;28;20061;-74
2023/08/02 11:44:45;;;;;;;1.60;1.00;;;17.80;99.90;;;;;;4999737;28;20054;-75
2023/08/02 11:47:11;;;;;;;2.25;0.90;;;17.80;99.90;;;;;;4999779;28;20070;-75
2023/08/02 11:49:56;;;;;;;1.35;1.08;;;17.90;99.90;;;;;;5015140;28;20033;-74
2023/08/02 11:52:30;;;;;;;0.82;0.63;;;17.90;99.90;;;;;;5015644;28;20113;-74
2023/08/02 11:54:56;;;;;;;2.35;0.95;;;18.00;99.90;;;;;;4999636;28;20022;-74
2023/08/02 11:57:22;;;;;;;1.92;0.85;;;18.00;99.90;;;;;;5015044;28;20022;-74
2023/08/02 11:59:56;;;;;;;3.10;1.00;;;18.00;99.90;;;;;;5015310;28;20080;-74
2023/08/02 12:02:35;;;;;;;0.95;0.80;;;18.00;99.90;;;;;;5014904;28;20057;-74
2023/08/02 12:05:05;;;;;;;0.70;0.68;;;18.00;99.90;;;;;;5015020;28;20033;-74
2023/08/02 12:07:32;;;;;;;1.50;0.93;;;18.00;99.90;;;;;;5014822;28;20023;-74
2023/08/02 12:09:58;;;;;;;0.85;0.77;;;18.10;99.90;;;;;;5014972;28;20037;-74
2023/08/02 12:12:31;;;;;;;2.80;1.00;;;18.10;99.90;;;;;;5014598;28;20026;-74
2023/08/02 12:14:58;;;;;;;0.80;0.70;;;18.20;99.90;;;;;;5015156;28;20066;-74
2023/08/02 12:17:24;;;;;;;1.33;0.90;;;18.20;99.90;;;;;;5015353;28;20041;-74
2023/08/02 12:19:52;;;;;;;1.17;0.90;;;18.30;99.90;;;;;;5014438;28;20093;-74
2023/08/02 12:22:18;;;;;;;5.13;1.10;;;18.30;99.90;;;;;;5014483;28;20022;-74
2023/08/02 12:24:44;;;;;;;4.05;1.00;;;18.30;99.90;;;;;;5014838;28;20047;-74
2023/08/02 12:27:17;;;;;;;1.10;0.73;;;18.30;99.90;;;;;;5014679;28;20145;-74
2023/08/02 12:29:44;;;;;;;1.23;0.70;;;18.40;99.90;;;;;;5014243;28;20038;-74
2023/08/02 12:32:22;;;;;;;2.15;0.80;;;18.50;99.90;;;;;;5014455;28;20068;-74
2023/08/02 12:34:47;;;;;;;1.25;0.80;;;18.50;99.90;;;;;;4997978;28;20088;-74
2023/08/02 12:37:15;;;;;;;1.15;0.80;;;18.50;99.90;;;;;;5014232;28;20022;-74
2023/08/02 12:39:41;;;;;;;1.20;0.60;;;18.50;99.90;;;;;;4998735;28;20081;-74
2023/08/02 12:42:06;;;;;;;0.70;0.60;;;18.60;99.90;;;;;;5014448;28;20117;-74
2023/08/02 12:44:32;;;;;;;0.82;0.80;;;18.70;99.90;;;;;;5014223;28;20022;-74